Hovedside
METAR-TAF:

METAR-TAF

Lufthavner :

Utti lufthavn

Utti, Finland

breddegrad: 60-54N, lengdegrad: 026-56E, høyde over havet: 100 m

Gjeldene værobservasjon

Denne rapporten ble laget for 29 minutter siden, klokken 16:20 UTC
Vind 7 kt fra Nord-nordvest, skiftende mellom Vest-nordvest og Nord-nordøst
Temperatur 0°C
Luftfuktighet 93%
Trykk 1028 hPa
Sikt 10 km eller mer
Overskyet i en høyde av 800 ft

METAR: EFUT 201620Z AUTO 34007KT 300V020 9999 OVC008 00/M01 Q1028

Tid: 18:49 (16:49 UTC)

Varsel

Denne rapporten ble laget for 3 timer og 24 minutter siden, klokken 13:25 UTC
Varsel gyldig fra 20. klokken 13 UTC til 20. klokken 14 UTC
Vind 8 kt fra Nordvest
Sikt 10 km eller mer
Overskyet i en høyde av 1000 ft

TAF: EFUT 201325Z 2013/2014 31008KT 9999 OVC010

Værobservasjoner og værvarsel for over 4000 flyplasser (METAR- og TAF-rapporter).

Tilgjengelige stasjoner er representert av de røde og gule prikkene på kartet.

Hold musepekeren over prikken for å se navnet på stasjonen.

Klikk så for å se værobservasjoner og -varsler.

For å forandre kartet kan du klikke på den grønne knappen med svart kryss for å zoome inn, på den grønne knappen med strek for å zoome ut, eller på de grønne pilene for å se tilstøtende kart.


METAR-TAF: